createdAt,value
2023-03-31T00:02:02.592Z,10.27
2023-03-31T00:07:01.387Z,10.27
2023-03-31T00:12:00.451Z,10.34
2023-03-31T00:16:59.379Z,10.40
2023-03-31T00:22:02.122Z,10.55
2023-03-31T00:27:01.209Z,10.54
2023-03-31T00:32:00.084Z,10.67
2023-03-31T00:37:02.762Z,10.73
2023-03-31T00:42:03.917Z,10.87
2023-03-31T00:47:07.183Z,10.98
2023-03-31T00:52:13.814Z,11.06
2023-03-31T00:57:14.341Z,11.13
2023-03-31T01:02:15.753Z,11.18
2023-03-31T01:07:24.116Z,11.24
2023-03-31T01:12:24.147Z,11.23
2023-03-31T01:17:25.507Z,11.20
2023-03-31T01:23:00.582Z,11.20
2023-03-31T01:28:12.211Z,11.21
2023-03-31T01:33:47.812Z,11.19
2023-03-31T01:39:31.790Z,11.18
2023-03-31T01:44:41.138Z,11.16
2023-03-31T01:49:47.698Z,11.16
2023-03-31T01:54:52.216Z,11.16
2023-03-31T01:59:57.608Z,11.28
2023-03-31T02:05:00.947Z,11.13
2023-03-31T02:10:01.663Z,11.21
2023-03-31T02:15:05.762Z,10.94
2023-03-31T02:20:09.097Z,10.83
2023-03-31T02:25:11.844Z,10.82
2023-03-31T02:30:14.269Z,10.77
2023-03-31T02:35:16.412Z,10.77
2023-03-31T02:40:19.912Z,10.78
2023-03-31T02:45:37.150Z,10.98
2023-03-31T02:50:52.578Z,10.88
2023-03-31T02:56:05.182Z,10.91
2023-03-31T03:01:34.130Z,10.96
2023-03-31T03:06:43.420Z,10.87
2023-03-31T03:11:57.979Z,10.67
2023-03-31T03:17:02.566Z,10.64
2023-03-31T03:22:03.072Z,10.65
2023-03-31T03:27:02.343Z,10.59
2023-03-31T03:32:01.132Z,10.57
2023-03-31T03:36:59.831Z,10.54
2023-03-31T03:42:00.140Z,10.52
2023-03-31T03:46:59.010Z,10.42
2023-03-31T03:51:58.027Z,10.35
2023-03-31T03:56:56.919Z,10.25
2023-03-31T04:01:57.010Z,9.97
2023-03-31T04:06:55.860Z,9.95
2023-03-31T04:11:54.770Z,9.76
2023-03-31T04:16:56.472Z,9.63
2023-03-31T04:22:03.119Z,9.50
2023-03-31T04:27:03.295Z,9.40
2023-03-31T04:32:03.004Z,9.45
2023-03-31T04:37:03.972Z,9.46
2023-03-31T04:42:02.798Z,9.45
2023-03-31T04:47:03.274Z,9.28
2023-03-31T04:52:03.492Z,9.41
2023-03-31T04:57:02.304Z,9.33
2023-03-31T05:02:01.132Z,9.32
2023-03-31T05:07:00.352Z,9.38
2023-03-31T05:12:01.220Z,9.40
2023-03-31T05:17:00.206Z,9.19
2023-03-31T05:21:59.028Z,9.25
2023-03-31T05:26:57.800Z,9.38
2023-03-31T05:31:58.227Z,9.50
2023-03-31T05:37:00.373Z,9.37
2023-03-31T05:41:59.196Z,9.41
2023-03-31T05:46:59.441Z,9.27
2023-03-31T05:51:58.153Z,9.29
2023-03-31T05:56:56.996Z,9.20
2023-03-31T06:01:55.991Z,8.96
2023-03-31T06:06:58.304Z,8.95
2023-03-31T06:11:57.444Z,9.03
2023-03-31T06:16:57.743Z,9.00
2023-03-31T06:21:58.149Z,10.52
2023-03-31T06:26:56.855Z,10.41
2023-03-31T06:31:55.550Z,9.84
2023-03-31T06:36:54.652Z,9.30
2023-03-31T06:41:56.452Z,9.41
2023-03-31T06:46:59.540Z,9.32
2023-03-31T06:51:58.295Z,9.26
2023-03-31T06:56:58.933Z,8.98
2023-03-31T07:01:57.678Z,9.19
2023-03-31T07:07:03.417Z,9.15
2023-03-31T07:12:05.491Z,8.98
2023-03-31T07:17:04.757Z,8.83
2023-03-31T07:22:03.508Z,8.76
2023-03-31T07:27:04.059Z,8.88
2023-03-31T07:32:02.995Z,8.91
2023-03-31T07:37:01.980Z,9.00
2023-03-31T07:42:01.299Z,8.86
2023-03-31T07:47:04.581Z,8.82
2023-03-31T07:52:03.812Z,8.90
2023-03-31T07:57:06.276Z,9.27
2023-03-31T08:02:06.681Z,9.44
2023-03-31T08:07:06.644Z,9.61
2023-03-31T08:12:05.920Z,9.71
2023-03-31T08:17:06.708Z,9.92
2023-03-31T08:22:05.728Z,10.26
2023-03-31T08:27:04.716Z,10.55
2023-03-31T08:32:03.841Z,10.71
2023-03-31T08:37:05.703Z,11.13
2023-03-31T08:42:14.685Z,11.41
2023-03-31T08:47:19.909Z,11.58
2023-03-31T08:52:24.724Z,11.95
2023-03-31T08:57:27.321Z,12.50
2023-03-31T09:02:34.121Z,12.65
2023-03-31T09:07:44.579Z,12.86
2023-03-31T09:12:53.706Z,13.17
2023-03-31T09:17:55.811Z,13.16
2023-03-31T09:23:03.107Z,13.24
2023-03-31T09:28:05.036Z,13.49
2023-03-31T09:33:34.909Z,13.89
2023-03-31T09:38:36.046Z,14.51
2023-03-31T09:43:36.397Z,14.74
2023-03-31T09:48:37.302Z,14.96
2023-03-31T09:53:47.339Z,14.94
2023-03-31T09:58:47.451Z,15.26
2023-03-31T10:03:51.883Z,15.31
2023-03-31T10:08:58.674Z,15.57
2023-03-31T10:14:03.513Z,15.66
2023-03-31T10:19:20.405Z,16.20
2023-03-31T10:24:52.138Z,16.60
2023-03-31T10:30:23.709Z,16.54
2023-03-31T10:36:43.768Z,16.58
2023-03-31T10:42:13.638Z,16.31
2023-03-31T10:47:21.248Z,16.71
2023-03-31T10:52:23.212Z,16.80
2023-03-31T10:57:35.558Z,17.31
2023-03-31T11:02:56.235Z,17.63
2023-03-31T11:08:06.922Z,17.49
2023-03-31T11:13:53.866Z,17.55
2023-03-31T11:19:17.202Z,17.89
2023-03-31T11:24:36.441Z,18.00
2023-03-31T11:29:51.625Z,17.93
2023-03-31T11:41:27.551Z,17.69
2023-03-31T11:46:34.030Z,17.72
2023-03-31T11:51:43.146Z,17.82
2023-03-31T11:56:47.517Z,17.48
2023-03-31T12:01:53.120Z,17.76
2023-03-31T12:07:01.288Z,18.13
2023-03-31T12:12:10.938Z,18.43
2023-03-31T12:17:19.917Z,18.67
2023-03-31T12:29:00.106Z,19.96
2023-03-31T12:34:09.892Z,20.64
2023-03-31T12:39:26.809Z,20.81
2023-03-31T12:45:13.731Z,21.14
2023-03-31T12:51:00.257Z,21.69
2023-03-31T12:56:06.619Z,21.63
2023-03-31T13:01:23.228Z,21.14
2023-03-31T13:20:39.651Z,21.23
2023-03-31T13:32:21.878Z,21.70
2023-03-31T13:37:37.374Z,22.25
2023-03-31T13:54:43.533Z,22.48
2023-03-31T14:00:17.869Z,22.15
2023-03-31T14:06:17.390Z,21.79
2023-03-31T14:12:04.607Z,21.71
2023-03-31T14:24:33.458Z,22.03
2023-03-31T14:29:42.832Z,21.84
2023-03-31T14:34:57.606Z,21.36
2023-03-31T14:39:59.197Z,21.65
2023-03-31T14:45:04.050Z,21.76
2023-03-31T14:50:07.651Z,21.59
2023-03-31T14:55:08.351Z,21.59
2023-03-31T15:00:16.004Z,21.67
2023-03-31T15:05:27.905Z,21.64
2023-03-31T15:10:27.319Z,21.94
2023-03-31T15:15:28.675Z,21.73
2023-03-31T15:20:35.029Z,21.92
2023-03-31T15:25:41.222Z,22.06
2023-03-31T15:30:42.376Z,21.73
2023-03-31T15:35:42.770Z,21.31
2023-03-31T15:40:47.905Z,21.09
2023-03-31T15:45:51.989Z,21.08
2023-03-31T15:50:55.034Z,21.33
2023-03-31T15:55:59.148Z,21.27
2023-03-31T16:01:06.783Z,21.41
2023-03-31T16:06:11.749Z,21.45
2023-03-31T16:11:18.805Z,21.29
2023-03-31T16:16:23.415Z,21.45
2023-03-31T16:21:26.874Z,21.14
2023-03-31T16:26:31.388Z,20.80
2023-03-31T16:31:39.606Z,20.44
2023-03-31T16:36:42.252Z,20.04
2023-03-31T16:41:43.838Z,19.78
2023-03-31T16:46:47.274Z,19.21
2023-03-31T16:51:46.937Z,19.07
2023-03-31T16:56:48.139Z,19.00
2023-03-31T17:01:48.822Z,18.82
2023-03-31T17:06:52.239Z,18.67
2023-03-31T17:11:51.602Z,18.39
2023-03-31T17:16:53.006Z,18.15
2023-03-31T17:21:52.680Z,18.00
2023-03-31T17:26:51.736Z,17.75
2023-03-31T17:31:52.228Z,17.72
2023-03-31T17:36:55.033Z,17.55
2023-03-31T17:41:54.260Z,17.56
2023-03-31T17:46:55.916Z,17.45
2023-03-31T17:51:58.578Z,17.39
2023-03-31T17:56:57.890Z,17.35
2023-03-31T18:09:55.539Z,16.99
2023-03-31T18:14:57.941Z,16.86
2023-03-31T18:20:17.039Z,16.79
2023-03-31T18:25:42.303Z,16.74
2023-03-31T18:31:05.546Z,16.65
2023-03-31T18:36:07.809Z,16.71
2023-03-31T18:41:10.324Z,16.65
2023-03-31T18:46:13.251Z,16.66
2023-03-31T18:51:17.132Z,16.64
2023-03-31T18:56:19.780Z,16.57
2023-03-31T19:01:20.586Z,16.57
2023-03-31T19:06:22.852Z,16.57
2023-03-31T19:11:22.336Z,16.50
2023-03-31T19:16:21.745Z,16.44
2023-03-31T19:21:22.737Z,16.32
2023-03-31T19:26:22.922Z,16.31
2023-03-31T19:31:24.166Z,16.30
2023-03-31T19:36:26.322Z,16.30
2023-03-31T19:41:27.840Z,16.30
2023-03-31T19:46:29.242Z,16.18
2023-03-31T19:51:30.062Z,16.19
2023-03-31T19:56:31.654Z,16.19
2023-03-31T20:01:30.812Z,16.18
2023-03-31T20:06:32.214Z,16.12
2023-03-31T20:11:32.474Z,16.04
2023-03-31T20:16:33.263Z,16.04
2023-03-31T20:21:36.851Z,16.06
2023-03-31T20:26:36.303Z,16.08
2023-03-31T20:31:37.919Z,16.09
2023-03-31T20:36:42.339Z,16.04
2023-03-31T20:41:41.939Z,16.01
2023-03-31T20:46:41.816Z,16.02
2023-03-31T20:51:45.848Z,15.99
2023-03-31T20:56:45.795Z,15.90
2023-03-31T21:01:47.349Z,15.73
2023-03-31T21:06:49.307Z,15.63
2023-03-31T21:11:48.927Z,15.53
2023-03-31T21:16:48.031Z,15.49
2023-03-31T21:21:51.782Z,15.41
2023-03-31T21:26:50.942Z,15.17
2023-03-31T21:31:50.008Z,14.99
2023-03-31T21:36:51.253Z,14.85
2023-03-31T21:41:50.008Z,14.77
2023-03-31T21:46:49.810Z,14.68
2023-03-31T21:51:51.717Z,14.55
2023-03-31T21:56:51.265Z,14.37
2023-03-31T22:01:50.480Z,14.41
2023-03-31T22:06:51.189Z,14.41
2023-03-31T22:11:51.145Z,14.39
2023-03-31T22:16:50.201Z,14.27
2023-03-31T22:21:50.827Z,13.97
2023-03-31T22:26:56.312Z,13.83
2023-03-31T22:31:55.726Z,13.84
2023-03-31T22:36:56.608Z,13.86
2023-03-31T22:41:56.619Z,13.72
2023-03-31T22:46:55.933Z,13.51
2023-03-31T22:51:56.796Z,13.52
2023-03-31T22:56:56.067Z,13.58
2023-03-31T23:01:55.174Z,13.69
2023-03-31T23:06:55.216Z,13.68
2023-03-31T23:11:55.947Z,13.62
2023-03-31T23:16:55.361Z,13.53
2023-03-31T23:21:54.314Z,13.59
2023-03-31T23:26:55.761Z,13.47
2023-03-31T23:31:54.935Z,13.37
2023-03-31T23:36:53.711Z,13.48
2023-03-31T23:41:53.603Z,13.54
2023-03-31T23:46:53.893Z,13.58
2023-03-31T23:51:52.768Z,13.67
2023-03-31T23:56:51.642Z,13.62
